sensor_id;sensor_type;location;lat;lon;timestamp;temperature;humidity
47162;DHT22;32921;53.256;8.198;2023-04-21T00:00:59;6.70;99.90
47162;DHT22;32921;53.256;8.198;2023-04-21T00:03:24;6.80;99.90
47162;DHT22;32921;53.256;8.198;2023-04-21T00:05:52;6.70;99.90
47162;DHT22;32921;53.256;8.198;2023-04-21T00:08:18;6.60;99.90
47162;DHT22;32921;53.256;8.198;2023-04-21T00:10:44;6.70;99.90
47162;DHT22;32921;53.256;8.198;2023-04-21T00:13:11;6.60;99.90
47162;DHT22;32921;53.256;8.198;2023-04-21T00:15:37;6.60;99.90
47162;DHT22;32921;53.256;8.198;2023-04-21T00:18:02;6.70;99.90
47162;DHT22;32921;53.256;8.198;2023-04-21T00:20:29;6.70;99.90
47162;DHT22;32921;53.256;8.198;2023-04-21T00:22:55;6.60;99.90
47162;DHT22;32921;53.256;8.198;2023-04-21T00:25:22;6.60;99.90
47162;DHT22;32921;53.256;8.198;2023-04-21T00:27:47;6.50;99.90
47162;DHT22;32921;53.256;8.198;2023-04-21T00:30:13;6.60;99.90
47162;DHT22;32921;53.256;8.198;2023-04-21T00:32:39;6.50;99.90
47162;DHT22;32921;53.256;8.198;2023-04-21T00:35:05;6.60;99.90
47162;DHT22;32921;53.256;8.198;2023-04-21T00:37:30;6.40;99.90
47162;DHT22;32921;53.256;8.198;2023-04-21T00:39:56;6.50;99.90
47162;DHT22;32921;53.256;8.198;2023-04-21T00:42:23;6.50;99.90
47162;DHT22;32921;53.256;8.198;2023-04-21T00:44:49;6.40;99.90
47162;DHT22;32921;53.256;8.198;2023-04-21T00:47:14;6.30;99.90
47162;DHT22;32921;53.256;8.198;2023-04-21T00:49:40;6.30;99.90
47162;DHT22;32921;53.256;8.198;2023-04-21T00:52:06;6.30;99.90
47162;DHT22;32921;53.256;8.198;2023-04-21T00:54:34;6.30;99.90
47162;DHT22;32921;53.256;8.198;2023-04-21T00:57:01;6.30;99.90
47162;DHT22;32921;53.256;8.198;2023-04-21T00:59:28;6.40;99.90
47162;DHT22;32921;53.256;8.198;2023-04-21T01:01:54;6.40;99.90
47162;DHT22;32921;53.256;8.198;2023-04-21T01:04:19;6.40;99.90
47162;DHT22;32921;53.256;8.198;2023-04-21T01:06:45;6.40;99.90
47162;DHT22;32921;53.256;8.198;2023-04-21T01:09:11;6.40;99.90
47162;DHT22;32921;53.256;8.198;2023-04-21T01:11:37;6.30;99.90
47162;DHT22;32921;53.256;8.198;2023-04-21T01:14:04;6.20;99.90
47162;DHT22;32921;53.256;8.198;2023-04-21T01:16:29;6.20;99.90
47162;DHT22;32921;53.256;8.198;2023-04-21T01:18:57;6.30;99.90
47162;DHT22;32921;53.256;8.198;2023-04-21T01:21:23;6.30;99.90
47162;DHT22;32921;53.256;8.198;2023-04-21T01:23:50;6.30;99.90
47162;DHT22;32921;53.256;8.198;2023-04-21T01:26:21;6.40;99.90
47162;DHT22;32921;53.256;8.198;2023-04-21T01:28:48;6.40;99.90
47162;DHT22;32921;53.256;8.198;2023-04-21T01:31:14;6.40;99.90
47162;DHT22;32921;53.256;8.198;2023-04-21T01:33:40;6.40;99.90
47162;DHT22;32921;53.256;8.198;2023-04-21T01:36:07;6.30;99.90
47162;DHT22;32921;53.256;8.198;2023-04-21T01:38:33;6.30;99.90
47162;DHT22;32921;53.256;8.198;2023-04-21T01:40:58;6.30;99.90
47162;DHT22;32921;53.256;8.198;2023-04-21T01:43:24;6.30;99.90
47162;DHT22;32921;53.256;8.198;2023-04-21T01:45:51;6.30;99.90
47162;DHT22;32921;53.256;8.198;2023-04-21T01:48:16;6.20;99.90
47162;DHT22;32921;53.256;8.198;2023-04-21T01:50:42;6.10;99.90
47162;DHT22;32921;53.256;8.198;2023-04-21T01:53:08;6.10;99.90
47162;DHT22;32921;53.256;8.198;2023-04-21T01:55:33;6.00;99.90
47162;DHT22;32921;53.256;8.198;2023-04-21T01:57:59;6.10;99.90
47162;DHT22;32921;53.256;8.198;2023-04-21T02:00:25;6.10;99.90
47162;DHT22;32921;53.256;8.198;2023-04-21T02:02:51;6.00;99.90
47162;DHT22;32921;53.256;8.198;2023-04-21T02:05:17;6.00;99.90
47162;DHT22;32921;53.256;8.198;2023-04-21T02:07:43;6.00;99.90
47162;DHT22;32921;53.256;8.198;2023-04-21T02:10:09;5.90;99.90
47162;DHT22;32921;53.256;8.198;2023-04-21T02:12:35;6.00;99.90
47162;DHT22;32921;53.256;8.198;2023-04-21T02:15:00;6.10;99.90
47162;DHT22;32921;53.256;8.198;2023-04-21T02:17:26;6.00;99.90
47162;DHT22;32921;53.256;8.198;2023-04-21T02:19:51;6.00;99.90
47162;DHT22;32921;53.256;8.198;2023-04-21T02:22:17;6.00;99.90
47162;DHT22;32921;53.256;8.198;2023-04-21T02:24:42;6.00;99.90
47162;DHT22;32921;53.256;8.198;2023-04-21T02:27:08;6.00;99.90
47162;DHT22;32921;53.256;8.198;2023-04-21T02:29:33;6.00;99.90
47162;DHT22;32921;53.256;8.198;2023-04-21T02:31:59;6.00;99.90
47162;DHT22;32921;53.256;8.198;2023-04-21T02:34:24;6.10;99.90
47162;DHT22;32921;53.256;8.198;2023-04-21T02:36:50;6.10;99.90
47162;DHT22;32921;53.256;8.198;2023-04-21T02:39:16;6.10;99.90
47162;DHT22;32921;53.256;8.198;2023-04-21T02:41:41;6.00;99.90
47162;DHT22;32921;53.256;8.198;2023-04-21T02:44:07;6.00;99.90
47162;DHT22;32921;53.256;8.198;2023-04-21T02:46:32;6.00;99.90
47162;DHT22;32921;53.256;8.198;2023-04-21T02:48:58;6.00;99.90
47162;DHT22;32921;53.256;8.198;2023-04-21T02:51:23;5.90;99.90
47162;DHT22;32921;53.256;8.198;2023-04-21T02:53:50;5.80;99.90
47162;DHT22;32921;53.256;8.198;2023-04-21T02:56:15;5.90;99.90
47162;DHT22;32921;53.256;8.198;2023-04-21T02:58:41;5.90;99.90
47162;DHT22;32921;53.256;8.198;2023-04-21T03:01:06;5.90;99.90
47162;DHT22;32921;53.256;8.198;2023-04-21T03:03:32;6.00;99.90
47162;DHT22;32921;53.256;8.198;2023-04-21T03:05:59;6.00;99.90
47162;DHT22;32921;53.256;8.198;2023-04-21T03:08:25;5.90;99.90
47162;DHT22;32921;53.256;8.198;2023-04-21T03:10:51;6.00;99.90
47162;DHT22;32921;53.256;8.198;2023-04-21T03:13:16;5.90;99.90
47162;DHT22;32921;53.256;8.198;2023-04-21T03:15:42;5.80;99.90
47162;DHT22;32921;53.256;8.198;2023-04-21T03:18:08;6.00;99.90
47162;DHT22;32921;53.256;8.198;2023-04-21T03:20:33;5.90;99.90
47162;DHT22;32921;53.256;8.198;2023-04-21T03:22:59;5.90;99.90
47162;DHT22;32921;53.256;8.198;2023-04-21T03:25:24;5.90;99.90
47162;DHT22;32921;53.256;8.198;2023-04-21T03:27:52;5.90;99.90
47162;DHT22;32921;53.256;8.198;2023-04-21T03:30:18;6.10;99.90
47162;DHT22;32921;53.256;8.198;2023-04-21T03:32:44;6.10;99.90
47162;DHT22;32921;53.256;8.198;2023-04-21T03:35:09;5.90;99.90
47162;DHT22;32921;53.256;8.198;2023-04-21T03:37:35;6.00;99.90
47162;DHT22;32921;53.256;8.198;2023-04-21T03:40:01;5.90;99.90
47162;DHT22;32921;53.256;8.198;2023-04-21T03:42:26;5.80;99.90
47162;DHT22;32921;53.256;8.198;2023-04-21T03:44:54;5.80;99.90
47162;DHT22;32921;53.256;8.198;2023-04-21T03:47:19;5.80;99.90
47162;DHT22;32921;53.256;8.198;2023-04-21T03:49:45;5.80;99.90
47162;DHT22;32921;53.256;8.198;2023-04-21T03:52:10;5.80;99.90
47162;DHT22;32921;53.256;8.198;2023-04-21T03:54:36;5.90;99.90
47162;DHT22;32921;53.256;8.198;2023-04-21T03:57:01;5.90;99.90
47162;DHT22;32921;53.256;8.198;2023-04-21T03:59:27;5.80;99.90
47162;DHT22;32921;53.256;8.198;2023-04-21T04:01:53;5.70;99.90
47162;DHT22;32921;53.256;8.198;2023-04-21T04:04:18;5.70;99.90
47162;DHT22;32921;53.256;8.198;2023-04-21T04:06:44;5.60;99.90
47162;DHT22;32921;53.256;8.198;2023-04-21T04:09:09;5.80;99.90
47162;DHT22;32921;53.256;8.198;2023-04-21T04:11:35;5.60;99.90
47162;DHT22;32921;53.256;8.198;2023-04-21T04:14:00;5.70;99.90
47162;DHT22;32921;53.256;8.198;2023-04-21T04:16:26;5.60;99.90
47162;DHT22;32921;53.256;8.198;2023-04-21T04:18:53;5.70;99.90
47162;DHT22;32921;53.256;8.198;2023-04-21T04:21:19;5.70;99.90
47162;DHT22;32921;53.256;8.198;2023-04-21T04:23:44;5.60;99.90
47162;DHT22;32921;53.256;8.198;2023-04-21T04:26:10;5.70;99.90
47162;DHT22;32921;53.256;8.198;2023-04-21T04:28:36;5.80;99.90
47162;DHT22;32921;53.256;8.198;2023-04-21T04:31:02;5.80;99.90
47162;DHT22;32921;53.256;8.198;2023-04-21T04:33:29;5.80;99.90
47162;DHT22;32921;53.256;8.198;2023-04-21T04:35:54;5.70;99.90
47162;DHT22;32921;53.256;8.198;2023-04-21T04:38:20;5.70;99.90
47162;DHT22;32921;53.256;8.198;2023-04-21T04:40:53;5.80;99.90
47162;DHT22;32921;53.256;8.198;2023-04-21T04:43:19;5.80;99.90
47162;DHT22;32921;53.256;8.198;2023-04-21T04:45:44;5.80;99.90
47162;DHT22;32921;53.256;8.198;2023-04-21T04:48:10;5.90;99.90
47162;DHT22;32921;53.256;8.198;2023-04-21T04:50:36;5.90;99.90
47162;DHT22;32921;53.256;8.198;2023-04-21T04:53:01;5.80;99.90
47162;DHT22;32921;53.256;8.198;2023-04-21T04:55:27;5.80;99.90
47162;DHT22;32921;53.256;8.198;2023-04-21T04:57:52;5.90;99.90
47162;DHT22;32921;53.256;8.198;2023-04-21T05:00:18;6.00;99.90
47162;DHT22;32921;53.256;8.198;2023-04-21T05:02:44;6.00;99.90
47162;DHT22;32921;53.256;8.198;2023-04-21T05:05:10;6.00;99.90
47162;DHT22;32921;53.256;8.198;2023-04-21T05:07:35;6.10;99.90
47162;DHT22;32921;53.256;8.198;2023-04-21T05:10:01;6.20;99.90
47162;DHT22;32921;53.256;8.198;2023-04-21T05:12:29;6.30;99.90
47162;DHT22;32921;53.256;8.198;2023-04-21T05:14:55;6.30;99.90
47162;DHT22;32921;53.256;8.198;2023-04-21T05:17:21;6.40;99.90
47162;DHT22;32921;53.256;8.198;2023-04-21T05:19:46;6.40;99.90
47162;DHT22;32921;53.256;8.198;2023-04-21T05:22:12;6.60;99.90
47162;DHT22;32921;53.256;8.198;2023-04-21T05:24:40;6.70;99.90
47162;DHT22;32921;53.256;8.198;2023-04-21T05:27:05;6.90;99.90
47162;DHT22;32921;53.256;8.198;2023-04-21T05:29:31;7.00;99.90
47162;DHT22;32921;53.256;8.198;2023-04-21T05:31:58;7.10;99.90
47162;DHT22;32921;53.256;8.198;2023-04-21T05:34:24;7.20;99.90
47162;DHT22;32921;53.256;8.198;2023-04-21T05:36:50;7.30;99.90
47162;DHT22;32921;53.256;8.198;2023-04-21T05:39:16;7.40;99.90
47162;DHT22;32921;53.256;8.198;2023-04-21T05:41:42;7.50;99.90
47162;DHT22;32921;53.256;8.198;2023-04-21T05:44:08;7.60;99.90
47162;DHT22;32921;53.256;8.198;2023-04-21T05:46:33;7.80;99.90
47162;DHT22;32921;53.256;8.198;2023-04-21T05:48:59;8.00;99.90
47162;DHT22;32921;53.256;8.198;2023-04-21T05:51:26;8.10;99.90
47162;DHT22;32921;53.256;8.198;2023-04-21T05:53:52;8.30;99.90
47162;DHT22;32921;53.256;8.198;2023-04-21T05:56:18;8.50;99.90
47162;DHT22;32921;53.256;8.198;2023-04-21T05:58:43;8.70;99.90
47162;DHT22;32921;53.256;8.198;2023-04-21T06:01:09;8.90;99.90
47162;DHT22;32921;53.256;8.198;2023-04-21T06:03:35;9.10;99.90
47162;DHT22;32921;53.256;8.198;2023-04-21T06:06:02;9.40;99.90
47162;DHT22;32921;53.256;8.198;2023-04-21T06:08:28;9.60;99.90
47162;DHT22;32921;53.256;8.198;2023-04-21T06:10:54;9.80;99.90
47162;DHT22;32921;53.256;8.198;2023-04-21T06:13:19;10.00;99.90
47162;DHT22;32921;53.256;8.198;2023-04-21T06:15:45;10.20;99.90
47162;DHT22;32921;53.256;8.198;2023-04-21T06:18:10;10.00;99.90
47162;DHT22;32921;53.256;8.198;2023-04-21T06:20:36;9.90;99.90
47162;DHT22;32921;53.256;8.198;2023-04-21T06:23:02;9.70;99.90
47162;DHT22;32921;53.256;8.198;2023-04-21T06:25:27;9.70;99.90
47162;DHT22;32921;53.256;8.198;2023-04-21T06:27:54;9.70;99.90
47162;DHT22;32921;53.256;8.198;2023-04-21T06:30:20;9.90;99.90
47162;DHT22;32921;53.256;8.198;2023-04-21T06:32:46;10.40;99.90
47162;DHT22;32921;53.256;8.198;2023-04-21T06:35:14;10.80;99.90
47162;DHT22;32921;53.256;8.198;2023-04-21T06:37:40;11.10;99.90
47162;DHT22;32921;53.256;8.198;2023-04-21T06:40:07;11.30;99.90
47162;DHT22;32921;53.256;8.198;2023-04-21T06:42:32;11.30;99.00
47162;DHT22;32921;53.256;8.198;2023-04-21T06:44:58;11.10;99.80
47162;DHT22;32921;53.256;8.198;2023-04-21T06:47:23;11.30;99.20
47162;DHT22;32921;53.256;8.198;2023-04-21T06:49:49;11.20;98.10
47162;DHT22;32921;53.256;8.198;2023-04-21T06:52:15;11.50;98.80
47162;DHT22;32921;53.256;8.198;2023-04-21T06:54:40;11.50;98.00
47162;DHT22;32921;53.256;8.198;2023-04-21T06:57:06;11.90;97.20
47162;DHT22;32921;53.256;8.198;2023-04-21T06:59:31;11.90;95.60
47162;DHT22;32921;53.256;8.198;2023-04-21T07:01:58;11.60;96.00
47162;DHT22;32921;53.256;8.198;2023-04-21T07:04:24;11.50;96.60
47162;DHT22;32921;53.256;8.198;2023-04-21T07:06:54;11.90;95.80
47162;DHT22;32921;53.256;8.198;2023-04-21T07:09:20;12.20;95.00
47162;DHT22;32921;53.256;8.198;2023-04-21T07:11:46;12.30;95.20
47162;DHT22;32921;53.256;8.198;2023-04-21T07:14:11;12.40;94.70
47162;DHT22;32921;53.256;8.198;2023-04-21T07:16:37;12.80;94.60
47162;DHT22;32921;53.256;8.198;2023-04-21T07:19:02;12.80;92.70
47162;DHT22;32921;53.256;8.198;2023-04-21T07:21:28;12.70;93.30
47162;DHT22;32921;53.256;8.198;2023-04-21T07:23:56;12.70;92.90
47162;DHT22;32921;53.256;8.198;2023-04-21T07:26:22;13.00;92.20
47162;DHT22;32921;53.256;8.198;2023-04-21T07:28:48;13.10;92.10
47162;DHT22;32921;53.256;8.198;2023-04-21T07:31:14;13.30;92.10
47162;DHT22;32921;53.256;8.198;2023-04-21T07:33:40;13.60;90.80
47162;DHT22;32921;53.256;8.198;2023-04-21T07:36:06;13.60;91.30
47162;DHT22;32921;53.256;8.198;2023-04-21T07:38:31;13.70;90.50
47162;DHT22;32921;53.256;8.198;2023-04-21T07:40:57;14.20;89.70
47162;DHT22;32921;53.256;8.198;2023-04-21T07:43:24;14.30;89.30
47162;DHT22;32921;53.256;8.198;2023-04-21T07:45:51;14.70;88.70
47162;DHT22;32921;53.256;8.198;2023-04-21T07:48:17;15.30;84.30
47162;DHT22;32921;53.256;8.198;2023-04-21T07:50:42;14.60;84.50
47162;DHT22;32921;53.256;8.198;2023-04-21T07:53:08;14.80;86.90
47162;DHT22;32921;53.256;8.198;2023-04-21T07:55:34;14.70;86.50
47162;DHT22;32921;53.256;8.198;2023-04-21T07:58:02;14.60;84.30
47162;DHT22;32921;53.256;8.198;2023-04-21T08:00:28;14.70;84.30
47162;DHT22;32921;53.256;8.198;2023-04-21T08:02:54;14.60;83.70
47162;DHT22;32921;53.256;8.198;2023-04-21T08:05:19;14.60;83.90
47162;DHT22;32921;53.256;8.198;2023-04-21T08:07:45;14.60;84.90
47162;DHT22;32921;53.256;8.198;2023-04-21T08:10:10;15.00;83.90
47162;DHT22;32921;53.256;8.198;2023-04-21T08:12:36;15.40;82.90
47162;DHT22;32921;53.256;8.198;2023-04-21T08:15:02;15.40;83.10
47162;DHT22;32921;53.256;8.198;2023-04-21T08:17:31;15.70;80.20
47162;DHT22;32921;53.256;8.198;2023-04-21T08:19:57;15.70;79.20
47162;DHT22;32921;53.256;8.198;2023-04-21T08:22:22;16.20;80.60
47162;DHT22;32921;53.256;8.198;2023-04-21T08:24:48;16.20;77.00
47162;DHT22;32921;53.256;8.198;2023-04-21T08:27:14;15.70;77.60
47162;DHT22;32921;53.256;8.198;2023-04-21T08:29:39;16.10;78.00
47162;DHT22;32921;53.256;8.198;2023-04-21T08:32:05;16.50;76.40
47162;DHT22;32921;53.256;8.198;2023-04-21T08:34:30;16.20;76.20
47162;DHT22;32921;53.256;8.198;2023-04-21T08:36:56;16.40;74.90
47162;DHT22;32921;53.256;8.198;2023-04-21T08:39:22;16.60;75.30
47162;DHT22;32921;53.256;8.198;2023-04-21T08:41:48;17.10;72.60
47162;DHT22;32921;53.256;8.198;2023-04-21T08:44:15;17.00;72.20
47162;DHT22;32921;53.256;8.198;2023-04-21T08:46:42;16.70;72.30
47162;DHT22;32921;53.256;8.198;2023-04-21T08:49:09;17.10;71.60
47162;DHT22;32921;53.256;8.198;2023-04-21T08:51:34;17.00;71.70
47162;DHT22;32921;53.256;8.198;2023-04-21T08:54:00;17.10;70.60
47162;DHT22;32921;53.256;8.198;2023-04-21T08:56:26;16.80;72.60
47162;DHT22;32921;53.256;8.198;2023-04-21T08:58:52;17.30;71.20
47162;DHT22;32921;53.256;8.198;2023-04-21T09:01:18;17.30;71.50
47162;DHT22;32921;53.256;8.198;2023-04-21T09:03:44;17.20;70.50
47162;DHT22;32921;53.256;8.198;2023-04-21T09:06:10;17.10;70.20
47162;DHT22;32921;53.256;8.198;2023-04-21T09:08:57;17.30;70.50
47162;DHT22;32921;53.256;8.198;2023-04-21T09:11:22;17.30;70.20
47162;DHT22;32921;53.256;8.198;2023-04-21T09:13:48;17.30;69.70
47162;DHT22;32921;53.256;8.198;2023-04-21T09:16:18;17.60;67.40
47162;DHT22;32921;53.256;8.198;2023-04-21T09:18:45;17.90;68.30
47162;DHT22;32921;53.256;8.198;2023-04-21T09:21:13;18.20;66.10
47162;DHT22;32921;53.256;8.198;2023-04-21T09:23:46;18.30;66.00
47162;DHT22;32921;53.256;8.198;2023-04-21T09:26:13;18.70;64.10
47162;DHT22;32921;53.256;8.198;2023-04-21T09:28:42;18.60;63.90
47162;DHT22;32921;53.256;8.198;2023-04-21T09:31:13;18.10;65.10
47162;DHT22;32921;53.256;8.198;2023-04-21T09:33:46;18.60;65.70
47162;DHT22;32921;53.256;8.198;2023-04-21T09:36:20;18.30;62.50
47162;DHT22;32921;53.256;8.198;2023-04-21T09:39:05;18.00;62.10
47162;DHT22;32921;53.256;8.198;2023-04-21T09:41:31;18.30;62.80
47162;DHT22;32921;53.256;8.198;2023-04-21T09:43:57;19.00;63.00
47162;DHT22;32921;53.256;8.198;2023-04-21T09:46:28;19.00;62.80
47162;DHT22;32921;53.256;8.198;2023-04-21T09:48:55;19.00;60.00
47162;DHT22;32921;53.256;8.198;2023-04-21T09:51:21;19.10;61.30
47162;DHT22;32921;53.256;8.198;2023-04-21T09:53:51;19.30;59.10
47162;DHT22;32921;53.256;8.198;2023-04-21T09:56:20;18.60;61.50
47162;DHT22;32921;53.256;8.198;2023-04-21T09:58:52;19.30;59.80
47162;DHT22;32921;53.256;8.198;2023-04-21T10:01:18;19.30;58.80
47162;DHT22;32921;53.256;8.198;2023-04-21T10:03:46;19.40;59.10
47162;DHT22;32921;53.256;8.198;2023-04-21T10:06:13;19.20;58.50
47162;DHT22;32921;53.256;8.198;2023-04-21T10:08:39;18.80;57.50
47162;DHT22;32921;53.256;8.198;2023-04-21T10:11:06;18.70;57.60
47162;DHT22;32921;53.256;8.198;2023-04-21T10:13:32;19.00;56.20
47162;DHT22;32921;53.256;8.198;2023-04-21T10:16:08;19.10;57.70
47162;DHT22;32921;53.256;8.198;2023-04-21T10:18:38;19.60;56.60
47162;DHT22;32921;53.256;8.198;2023-04-21T10:21:08;19.60;55.30
47162;DHT22;32921;53.256;8.198;2023-04-21T10:23:50;20.00;53.60
47162;DHT22;32921;53.256;8.198;2023-04-21T10:28:56;20.40;53.60
47162;DHT22;32921;53.256;8.198;2023-04-21T10:34:17;19.30;52.80
47162;DHT22;32921;53.256;8.198;2023-04-21T10:36:59;19.30;54.00
47162;DHT22;32921;53.256;8.198;2023-04-21T10:39:36;19.80;53.20
47162;DHT22;32921;53.256;8.198;2023-04-21T10:47:36;20.70;49.10
47162;DHT22;32921;53.256;8.198;2023-04-21T10:50:13;20.20;51.10
47162;DHT22;32921;53.256;8.198;2023-04-21T10:52:43;20.30;53.10
47162;DHT22;32921;53.256;8.198;2023-04-21T10:55:09;20.80;50.00
47162;DHT22;32921;53.256;8.198;2023-04-21T10:57:38;20.50;50.00
47162;DHT22;32921;53.256;8.198;2023-04-21T11:00:05;20.90;50.60
47162;DHT22;32921;53.256;8.198;2023-04-21T11:02:32;20.60;48.80
47162;DHT22;32921;53.256;8.198;2023-04-21T11:04:58;20.80;48.20
47162;DHT22;32921;53.256;8.198;2023-04-21T11:07:25;20.50;49.50
47162;DHT22;32921;53.256;8.198;2023-04-21T11:10:00;20.80;48.60
47162;DHT22;32921;53.256;8.198;2023-04-21T11:12:30;21.00;47.00
47162;DHT22;32921;53.256;8.198;2023-04-21T11:14:56;21.00;48.20
47162;DHT22;32921;53.256;8.198;2023-04-21T11:17:22;21.60;45.50
47162;DHT22;32921;53.256;8.198;2023-04-21T11:19:53;22.00;46.20
47162;DHT22;32921;53.256;8.198;2023-04-21T11:22:20;22.60;45.90
47162;DHT22;32921;53.256;8.198;2023-04-21T11:24:48;22.60;43.20
47162;DHT22;32921;53.256;8.198;2023-04-21T11:27:15;22.20;43.60
47162;DHT22;32921;53.256;8.198;2023-04-21T11:29:46;21.80;43.70
47162;DHT22;32921;53.256;8.198;2023-04-21T11:32:12;21.20;43.80
47162;DHT22;32921;53.256;8.198;2023-04-21T11:34:38;21.40;43.00
47162;DHT22;32921;53.256;8.198;2023-04-21T11:37:06;21.80;42.70
47162;DHT22;32921;53.256;8.198;2023-04-21T11:39:32;21.80;43.50
47162;DHT22;32921;53.256;8.198;2023-04-21T11:41:58;21.60;44.00
47162;DHT22;32921;53.256;8.198;2023-04-21T11:44:38;21.50;43.00
47162;DHT22;32921;53.256;8.198;2023-04-21T11:47:34;21.90;44.30
47162;DHT22;32921;53.256;8.198;2023-04-21T11:50:02;21.70;42.70
47162;DHT22;32921;53.256;8.198;2023-04-21T11:52:32;21.80;41.50
47162;DHT22;32921;53.256;8.198;2023-04-21T11:57:27;21.60;41.50
47162;DHT22;32921;53.256;8.198;2023-04-21T11:59:53;21.60;41.80
47162;DHT22;32921;53.256;8.198;2023-04-21T12:02:25;21.60;42.90
47162;DHT22;32921;53.256;8.198;2023-04-21T12:05:04;21.90;43.20
47162;DHT22;32921;53.256;8.198;2023-04-21T12:07:32;22.70;40.40
47162;DHT22;32921;53.256;8.198;2023-04-21T12:09:59;22.20;39.80
47162;DHT22;32921;53.256;8.198;2023-04-21T12:12:25;22.60;40.70
47162;DHT22;32921;53.256;8.198;2023-04-21T12:14:52;23.40;39.10
47162;DHT22;32921;53.256;8.198;2023-04-21T12:17:17;23.10;39.20
47162;DHT22;32921;53.256;8.198;2023-04-21T12:19:43;22.60;39.70
47162;DHT22;32921;53.256;8.198;2023-04-21T12:22:11;21.70;41.70
47162;DHT22;32921;53.256;8.198;2023-04-21T12:24:37;20.40;43.80
47162;DHT22;32921;53.256;8.198;2023-04-21T12:27:03;20.30;45.00
47162;DHT22;32921;53.256;8.198;2023-04-21T12:29:29;21.40;41.90
47162;DHT22;32921;53.256;8.198;2023-04-21T12:31:55;21.70;41.30
47162;DHT22;32921;53.256;8.198;2023-04-21T12:34:21;21.60;41.40
47162;DHT22;32921;53.256;8.198;2023-04-21T12:36:46;22.50;42.90
47162;DHT22;32921;53.256;8.198;2023-04-21T12:39:12;22.30;40.40
47162;DHT22;32921;53.256;8.198;2023-04-21T12:41:38;21.80;41.80
47162;DHT22;32921;53.256;8.198;2023-04-21T12:44:04;21.20;43.10
47162;DHT22;32921;53.256;8.198;2023-04-21T12:46:30;21.20;43.00
47162;DHT22;32921;53.256;8.198;2023-04-21T12:48:56;21.10;41.60
47162;DHT22;32921;53.256;8.198;2023-04-21T12:51:21;21.10;43.10
47162;DHT22;32921;53.256;8.198;2023-04-21T12:53:47;21.80;41.40
47162;DHT22;32921;53.256;8.198;2023-04-21T12:56:13;22.10;41.40
47162;DHT22;32921;53.256;8.198;2023-04-21T12:58:39;22.20;40.00
47162;DHT22;32921;53.256;8.198;2023-04-21T13:01:05;22.10;40.80
47162;DHT22;32921;53.256;8.198;2023-04-21T13:03:30;22.30;39.70
47162;DHT22;32921;53.256;8.198;2023-04-21T13:05:56;22.00;39.80
47162;DHT22;32921;53.256;8.198;2023-04-21T13:08:22;23.10;38.50
47162;DHT22;32921;53.256;8.198;2023-04-21T13:10:47;23.10;37.80
47162;DHT22;32921;53.256;8.198;2023-04-21T13:13:13;23.40;36.70
47162;DHT22;32921;53.256;8.198;2023-04-21T13:15:39;23.20;36.60
47162;DHT22;32921;53.256;8.198;2023-04-21T13:18:04;23.00;36.80
47162;DHT22;32921;53.256;8.198;2023-04-21T13:20:30;22.90;38.80
47162;DHT22;32921;53.256;8.198;2023-04-21T13:22:55;22.90;37.40
47162;DHT22;32921;53.256;8.198;2023-04-21T13:25:21;22.50;38.90
47162;DHT22;32921;53.256;8.198;2023-04-21T13:27:47;22.30;38.50
47162;DHT22;32921;53.256;8.198;2023-04-21T13:30:13;21.90;37.60
47162;DHT22;32921;53.256;8.198;2023-04-21T13:32:39;22.60;37.70
47162;DHT22;32921;53.256;8.198;2023-04-21T13:35:05;22.20;35.60
47162;DHT22;32921;53.256;8.198;2023-04-21T13:37:37;22.60;32.90
47162;DHT22;32921;53.256;8.198;2023-04-21T13:40:04;22.70;32.60
47162;DHT22;32921;53.256;8.198;2023-04-21T13:42:30;22.60;32.30
47162;DHT22;32921;53.256;8.198;2023-04-21T13:44:56;22.40;31.90
47162;DHT22;32921;53.256;8.198;2023-04-21T13:47:22;22.90;32.00
47162;DHT22;32921;53.256;8.198;2023-04-21T13:49:48;23.00;33.00
47162;DHT22;32921;53.256;8.198;2023-04-21T13:52:16;23.80;31.90
47162;DHT22;32921;53.256;8.198;2023-04-21T13:54:41;22.70;30.00
47162;DHT22;32921;53.256;8.198;2023-04-21T13:57:07;23.00;30.80
47162;DHT22;32921;53.256;8.198;2023-04-21T13:59:33;22.30;33.10
47162;DHT22;32921;53.256;8.198;2023-04-21T14:01:58;22.10;31.90
47162;DHT22;32921;53.256;8.198;2023-04-21T14:04:24;22.70;31.70
47162;DHT22;32921;53.256;8.198;2023-04-21T14:06:50;22.80;32.70
47162;DHT22;32921;53.256;8.198;2023-04-21T14:09:16;22.60;31.40
47162;DHT22;32921;53.256;8.198;2023-04-21T14:11:41;22.70;31.50
47162;DHT22;32921;53.256;8.198;2023-04-21T14:14:07;23.30;30.70
47162;DHT22;32921;53.256;8.198;2023-04-21T14:16:32;23.40;30.90
47162;DHT22;32921;53.256;8.198;2023-04-21T14:18:58;23.60;30.60
47162;DHT22;32921;53.256;8.198;2023-04-21T14:21:24;23.40;30.00
47162;DHT22;32921;53.256;8.198;2023-04-21T14:23:49;23.10;31.10
47162;DHT22;32921;53.256;8.198;2023-04-21T14:26:15;23.20;32.60
47162;DHT22;32921;53.256;8.198;2023-04-21T14:28:40;23.40;31.20
47162;DHT22;32921;53.256;8.198;2023-04-21T14:31:06;23.50;30.40
47162;DHT22;32921;53.256;8.198;2023-04-21T14:33:32;22.70;30.90
47162;DHT22;32921;53.256;8.198;2023-04-21T14:35:58;22.90;29.80
47162;DHT22;32921;53.256;8.198;2023-04-21T14:38:24;22.70;32.10
47162;DHT22;32921;53.256;8.198;2023-04-21T14:40:50;22.60;30.80
47162;DHT22;32921;53.256;8.198;2023-04-21T14:43:19;23.50;30.70
47162;DHT22;32921;53.256;8.198;2023-04-21T14:45:45;23.60;30.10
47162;DHT22;32921;53.256;8.198;2023-04-21T14:48:10;23.10;30.90
47162;DHT22;32921;53.256;8.198;2023-04-21T14:50:38;23.40;30.20
47162;DHT22;32921;53.256;8.198;2023-04-21T14:53:04;23.00;31.00
47162;DHT22;32921;53.256;8.198;2023-04-21T14:55:30;22.30;31.30
47162;DHT22;32921;53.256;8.198;2023-04-21T14:57:55;22.30;30.50
47162;DHT22;32921;53.256;8.198;2023-04-21T15:00:21;22.70;30.20
47162;DHT22;32921;53.256;8.198;2023-04-21T15:02:48;22.90;30.30
47162;DHT22;32921;53.256;8.198;2023-04-21T15:05:13;22.70;30.10
47162;DHT22;32921;53.256;8.198;2023-04-21T15:07:39;22.70;32.00
47162;DHT22;32921;53.256;8.198;2023-04-21T15:10:08;23.40;29.70
47162;DHT22;32921;53.256;8.198;2023-04-21T15:12:35;23.00;30.10
47162;DHT22;32921;53.256;8.198;2023-04-21T15:15:01;23.60;29.50
47162;DHT22;32921;53.256;8.198;2023-04-21T15:17:26;23.20;30.30
47162;DHT22;32921;53.256;8.198;2023-04-21T15:19:52;22.80;30.30
47162;DHT22;32921;53.256;8.198;2023-04-21T15:22:18;22.60;32.00
47162;DHT22;32921;53.256;8.198;2023-04-21T15:24:44;22.80;31.30
47162;DHT22;32921;53.256;8.198;2023-04-21T15:27:10;22.70;30.00
47162;DHT22;32921;53.256;8.198;2023-04-21T15:29:35;22.70;30.60
47162;DHT22;32921;53.256;8.198;2023-04-21T15:32:01;22.60;30.80
47162;DHT22;32921;53.256;8.198;2023-04-21T15:34:27;22.70;30.50
47162;DHT22;32921;53.256;8.198;2023-04-21T15:36:52;22.50;30.40
47162;DHT22;32921;53.256;8.198;2023-04-21T15:39:18;22.20;32.00
47162;DHT22;32921;53.256;8.198;2023-04-21T15:41:44;22.00;32.80
47162;DHT22;32921;53.256;8.198;2023-04-21T15:44:10;21.80;32.50
47162;DHT22;32921;53.256;8.198;2023-04-21T15:46:35;21.70;32.40